sensor_id;sensor_type;location;lat;lon;timestamp;temperature;humidity
9802;DHT22;4940;50.900;4.672;2022-09-09T00:01:00;14.90;99.90
9802;DHT22;4940;50.900;4.672;2022-09-09T00:03:39;14.90;99.90
9802;DHT22;4940;50.900;4.672;2022-09-09T00:06:11;14.90;99.90
9802;DHT22;4940;50.900;4.672;2022-09-09T00:08:45;14.90;99.90
9802;DHT22;4940;50.900;4.672;2022-09-09T00:11:18;14.90;99.90
9802;DHT22;4940;50.900;4.672;2022-09-09T00:13:52;15.00;99.90
9802;DHT22;4940;50.900;4.672;2022-09-09T00:16:22;14.80;99.90
9802;DHT22;4940;50.900;4.672;2022-09-09T00:18:56;14.90;99.90
9802;DHT22;4940;50.900;4.672;2022-09-09T00:21:28;14.90;99.90
9802;DHT22;4940;50.900;4.672;2022-09-09T00:24:01;14.80;99.90
9802;DHT22;4940;50.900;4.672;2022-09-09T00:26:38;14.90;99.90
9802;DHT22;4940;50.900;4.672;2022-09-09T00:29:14;14.90;99.90
9802;DHT22;4940;50.900;4.672;2022-09-09T00:31:43;14.90;99.90
9802;DHT22;4940;50.900;4.672;2022-09-09T00:34:12;14.90;99.90
9802;DHT22;4940;50.900;4.672;2022-09-09T00:36:40;14.90;99.90
9802;DHT22;4940;50.900;4.672;2022-09-09T00:39:15;14.90;99.90
9802;DHT22;4940;50.900;4.672;2022-09-09T00:41:54;14.80;99.90
9802;DHT22;4940;50.900;4.672;2022-09-09T00:44:31;14.90;99.90
9802;DHT22;4940;50.900;4.672;2022-09-09T00:47:23;14.80;99.90
9802;DHT22;4940;50.900;4.672;2022-09-09T00:50:00;14.90;99.90
9802;DHT22;4940;50.900;4.672;2022-09-09T00:52:35;14.90;99.90
9802;DHT22;4940;50.900;4.672;2022-09-09T00:55:09;14.90;99.90
9802;DHT22;4940;50.900;4.672;2022-09-09T00:57:41;14.90;99.90
9802;DHT22;4940;50.900;4.672;2022-09-09T01:00:24;14.90;99.90
9802;DHT22;4940;50.900;4.672;2022-09-09T01:02:59;14.90;99.90
9802;DHT22;4940;50.900;4.672;2022-09-09T01:05:34;15.00;99.90
9802;DHT22;4940;50.900;4.672;2022-09-09T01:08:08;15.00;99.90
9802;DHT22;4940;50.900;4.672;2022-09-09T01:10:45;15.00;99.90
9802;DHT22;4940;50.900;4.672;2022-09-09T01:13:22;14.90;99.90
9802;DHT22;4940;50.900;4.672;2022-09-09T01:15:53;15.00;99.90
9802;DHT22;4940;50.900;4.672;2022-09-09T01:18:23;15.00;99.90
9802;DHT22;4940;50.900;4.672;2022-09-09T01:20:59;15.00;99.90
9802;DHT22;4940;50.900;4.672;2022-09-09T01:23:43;15.00;99.90
9802;DHT22;4940;50.900;4.672;2022-09-09T01:26:19;15.00;99.90
9802;DHT22;4940;50.900;4.672;2022-09-09T01:28:50;15.00;99.90
9802;DHT22;4940;50.900;4.672;2022-09-09T01:31:21;15.00;99.90
9802;DHT22;4940;50.900;4.672;2022-09-09T01:33:49;15.00;99.90
9802;DHT22;4940;50.900;4.672;2022-09-09T01:36:24;15.00;99.90
9802;DHT22;4940;50.900;4.672;2022-09-09T01:38:53;15.00;99.90
9802;DHT22;4940;50.900;4.672;2022-09-09T01:41:22;15.00;99.90
9802;DHT22;4940;50.900;4.672;2022-09-09T01:43:50;15.00;99.90
9802;DHT22;4940;50.900;4.672;2022-09-09T01:46:19;15.00;99.90
9802;DHT22;4940;50.900;4.672;2022-09-09T01:48:48;15.00;99.90
9802;DHT22;4940;50.900;4.672;2022-09-09T01:51:16;15.00;99.90
9802;DHT22;4940;50.900;4.672;2022-09-09T01:53:44;14.90;99.90
9802;DHT22;4940;50.900;4.672;2022-09-09T01:56:23;14.90;99.90
9802;DHT22;4940;50.900;4.672;2022-09-09T01:59:01;14.90;99.90
9802;DHT22;4940;50.900;4.672;2022-09-09T02:01:39;14.90;99.90
9802;DHT22;4940;50.900;4.672;2022-09-09T02:04:22;14.90;99.90
9802;DHT22;4940;50.900;4.672;2022-09-09T02:06:54;14.90;99.90
9802;DHT22;4940;50.900;4.672;2022-09-09T02:09:24;14.90;99.90
9802;DHT22;4940;50.900;4.672;2022-09-09T02:11:59;14.80;99.90
9802;DHT22;4940;50.900;4.672;2022-09-09T02:14:31;14.80;99.90
9802;DHT22;4940;50.900;4.672;2022-09-09T02:17:03;14.90;99.90
9802;DHT22;4940;50.900;4.672;2022-09-09T02:19:34;14.90;99.90
9802;DHT22;4940;50.900;4.672;2022-09-09T02:22:03;14.80;99.90
9802;DHT22;4940;50.900;4.672;2022-09-09T02:24:33;14.80;99.90
9802;DHT22;4940;50.900;4.672;2022-09-09T02:27:04;14.80;99.90
9802;DHT22;4940;50.900;4.672;2022-09-09T02:29:36;14.80;99.90
9802;DHT22;4940;50.900;4.672;2022-09-09T02:32:07;14.80;99.90
9802;DHT22;4940;50.900;4.672;2022-09-09T02:34:37;14.80;99.90
9802;DHT22;4940;50.900;4.672;2022-09-09T02:37:07;14.80;99.90
9802;DHT22;4940;50.900;4.672;2022-09-09T02:39:36;14.80;99.90
9802;DHT22;4940;50.900;4.672;2022-09-09T02:42:05;14.80;99.90
9802;DHT22;4940;50.900;4.672;2022-09-09T02:44:34;14.80;99.90
9802;DHT22;4940;50.900;4.672;2022-09-09T02:47:24;14.80;99.90
9802;DHT22;4940;50.900;4.672;2022-09-09T02:50:02;14.80;99.90
9802;DHT22;4940;50.900;4.672;2022-09-09T02:52:36;14.80;99.90
9802;DHT22;4940;50.900;4.672;2022-09-09T02:55:10;14.80;99.90
9802;DHT22;4940;50.900;4.672;2022-09-09T02:57:41;14.80;99.90
9802;DHT22;4940;50.900;4.672;2022-09-09T03:00:12;14.70;99.90
9802;DHT22;4940;50.900;4.672;2022-09-09T03:02:39;14.70;99.90
9802;DHT22;4940;50.900;4.672;2022-09-09T03:05:08;14.70;99.90
9802;DHT22;4940;50.900;4.672;2022-09-09T03:07:35;14.70;99.90
9802;DHT22;4940;50.900;4.672;2022-09-09T03:10:03;14.80;99.90
9802;DHT22;4940;50.900;4.672;2022-09-09T03:12:31;14.70;99.90
9802;DHT22;4940;50.900;4.672;2022-09-09T03:15:00;14.70;99.90
9802;DHT22;4940;50.900;4.672;2022-09-09T03:17:28;14.70;99.90
9802;DHT22;4940;50.900;4.672;2022-09-09T03:19:55;14.70;99.90
9802;DHT22;4940;50.900;4.672;2022-09-09T03:22:24;14.70;99.90
9802;DHT22;4940;50.900;4.672;2022-09-09T03:24:52;14.70;99.90
9802;DHT22;4940;50.900;4.672;2022-09-09T03:27:19;14.70;99.90
9802;DHT22;4940;50.900;4.672;2022-09-09T03:29:47;14.70;99.90
9802;DHT22;4940;50.900;4.672;2022-09-09T03:32:18;14.70;99.90
9802;DHT22;4940;50.900;4.672;2022-09-09T03:34:48;14.70;99.90
9802;DHT22;4940;50.900;4.672;2022-09-09T03:37:16;14.70;99.90
9802;DHT22;4940;50.900;4.672;2022-09-09T03:39:44;14.70;99.90
9802;DHT22;4940;50.900;4.672;2022-09-09T03:42:12;14.70;99.90
9802;DHT22;4940;50.900;4.672;2022-09-09T03:44:44;14.70;99.90
9802;DHT22;4940;50.900;4.672;2022-09-09T03:47:13;14.70;99.90
9802;DHT22;4940;50.900;4.672;2022-09-09T03:49:41;14.70;99.90
9802;DHT22;4940;50.900;4.672;2022-09-09T03:52:09;14.70;99.90
9802;DHT22;4940;50.900;4.672;2022-09-09T03:54:36;14.70;99.90
9802;DHT22;4940;50.900;4.672;2022-09-09T03:57:04;14.80;99.90
9802;DHT22;4940;50.900;4.672;2022-09-09T03:59:32;14.70;99.90
9802;DHT22;4940;50.900;4.672;2022-09-09T04:02:00;14.80;99.90
9802;DHT22;4940;50.900;4.672;2022-09-09T04:04:28;14.80;99.90
9802;DHT22;4940;50.900;4.672;2022-09-09T04:06:57;14.70;99.90
9802;DHT22;4940;50.900;4.672;2022-09-09T04:09:24;14.70;99.90
9802;DHT22;4940;50.900;4.672;2022-09-09T04:11:52;14.70;99.90
9802;DHT22;4940;50.900;4.672;2022-09-09T04:14:21;14.70;99.90
9802;DHT22;4940;50.900;4.672;2022-09-09T04:16:48;14.70;99.90
9802;DHT22;4940;50.900;4.672;2022-09-09T04:19:15;14.70;99.90
9802;DHT22;4940;50.900;4.672;2022-09-09T04:21:43;14.70;99.90
9802;DHT22;4940;50.900;4.672;2022-09-09T04:24:11;14.70;99.90
9802;DHT22;4940;50.900;4.672;2022-09-09T04:26:39;14.70;99.90
9802;DHT22;4940;50.900;4.672;2022-09-09T04:29:06;14.70;99.90
9802;DHT22;4940;50.900;4.672;2022-09-09T04:31:33;14.70;99.90
9802;DHT22;4940;50.900;4.672;2022-09-09T04:34:01;14.80;99.90
9802;DHT22;4940;50.900;4.672;2022-09-09T04:36:31;14.80;99.90
9802;DHT22;4940;50.900;4.672;2022-09-09T04:38:59;14.90;99.90
9802;DHT22;4940;50.900;4.672;2022-09-09T04:41:28;14.80;99.90
9802;DHT22;4940;50.900;4.672;2022-09-09T04:43:57;14.90;99.90
9802;DHT22;4940;50.900;4.672;2022-09-09T04:46:24;14.90;99.90
9802;DHT22;4940;50.900;4.672;2022-09-09T04:48:52;14.90;99.90
9802;DHT22;4940;50.900;4.672;2022-09-09T04:51:19;14.90;99.90
9802;DHT22;4940;50.900;4.672;2022-09-09T04:53:47;14.90;99.90
9802;DHT22;4940;50.900;4.672;2022-09-09T04:56:16;14.90;99.90
9802;DHT22;4940;50.900;4.672;2022-09-09T04:58:45;14.90;99.90
9802;DHT22;4940;50.900;4.672;2022-09-09T05:01:13;14.80;99.90
9802;DHT22;4940;50.900;4.672;2022-09-09T05:03:41;14.80;99.90
9802;DHT22;4940;50.900;4.672;2022-09-09T05:06:13;14.80;99.90
9802;DHT22;4940;50.900;4.672;2022-09-09T05:08:41;14.80;99.90
9802;DHT22;4940;50.900;4.672;2022-09-09T05:11:16;14.80;99.90
9802;DHT22;4940;50.900;4.672;2022-09-09T05:13:46;14.80;99.90
9802;DHT22;4940;50.900;4.672;2022-09-09T05:16:14;14.80;99.90
9802;DHT22;4940;50.900;4.672;2022-09-09T05:18:41;14.80;99.90
9802;DHT22;4940;50.900;4.672;2022-09-09T05:21:10;14.80;99.90
9802;DHT22;4940;50.900;4.672;2022-09-09T05:23:37;14.80;99.90
9802;DHT22;4940;50.900;4.672;2022-09-09T05:26:05;14.90;99.90
9802;DHT22;4940;50.900;4.672;2022-09-09T05:28:34;15.00;99.90
9802;DHT22;4940;50.900;4.672;2022-09-09T05:31:04;14.90;99.90
9802;DHT22;4940;50.900;4.672;2022-09-09T05:33:35;14.90;99.90
9802;DHT22;4940;50.900;4.672;2022-09-09T05:36:04;15.00;99.90
9802;DHT22;4940;50.900;4.672;2022-09-09T05:38:32;15.00;99.90
9802;DHT22;4940;50.900;4.672;2022-09-09T05:41:00;15.10;99.90
9802;DHT22;4940;50.900;4.672;2022-09-09T05:43:28;15.10;99.90
9802;DHT22;4940;50.900;4.672;2022-09-09T05:46:01;15.20;99.90
9802;DHT22;4940;50.900;4.672;2022-09-09T05:48:32;15.20;99.90
9802;DHT22;4940;50.900;4.672;2022-09-09T05:51:00;15.40;99.90
9802;DHT22;4940;50.900;4.672;2022-09-09T05:53:30;15.50;99.90
9802;DHT22;4940;50.900;4.672;2022-09-09T05:56:00;15.60;99.90
9802;DHT22;4940;50.900;4.672;2022-09-09T05:58:29;15.70;99.90
9802;DHT22;4940;50.900;4.672;2022-09-09T06:01:04;15.60;99.90
9802;DHT22;4940;50.900;4.672;2022-09-09T06:03:34;15.80;99.90
9802;DHT22;4940;50.900;4.672;2022-09-09T06:06:01;15.80;99.90
9802;DHT22;4940;50.900;4.672;2022-09-09T06:08:31;16.00;99.90
9802;DHT22;4940;50.900;4.672;2022-09-09T06:11:02;16.00;99.90
9802;DHT22;4940;50.900;4.672;2022-09-09T06:13:34;16.00;99.90
9802;DHT22;4940;50.900;4.672;2022-09-09T06:16:03;16.10;99.90
9802;DHT22;4940;50.900;4.672;2022-09-09T06:18:30;16.10;99.90
9802;DHT22;4940;50.900;4.672;2022-09-09T06:21:00;16.10;99.90
9802;DHT22;4940;50.900;4.672;2022-09-09T06:23:30;16.10;99.90
9802;DHT22;4940;50.900;4.672;2022-09-09T06:26:02;16.10;99.90
9802;DHT22;4940;50.900;4.672;2022-09-09T06:28:31;16.10;99.90
9802;DHT22;4940;50.900;4.672;2022-09-09T06:30:59;16.20;99.90
9802;DHT22;4940;50.900;4.672;2022-09-09T06:33:26;16.30;99.90
9802;DHT22;4940;50.900;4.672;2022-09-09T06:35:54;16.40;99.90
9802;DHT22;4940;50.900;4.672;2022-09-09T06:38:24;16.50;99.90
9802;DHT22;4940;50.900;4.672;2022-09-09T06:40:52;16.50;99.90
9802;DHT22;4940;50.900;4.672;2022-09-09T06:43:20;16.60;99.90
9802;DHT22;4940;50.900;4.672;2022-09-09T06:45:53;16.60;99.90
9802;DHT22;4940;50.900;4.672;2022-09-09T06:48:21;16.70;99.90
9802;DHT22;4940;50.900;4.672;2022-09-09T06:50:48;16.70;99.90
9802;DHT22;4940;50.900;4.672;2022-09-09T06:53:17;16.80;99.90
9802;DHT22;4940;50.900;4.672;2022-09-09T06:55:46;16.80;99.90
9802;DHT22;4940;50.900;4.672;2022-09-09T06:58:14;16.80;99.90
9802;DHT22;4940;50.900;4.672;2022-09-09T07:00:41;16.90;99.90
9802;DHT22;4940;50.900;4.672;2022-09-09T07:03:11;17.00;99.90
9802;DHT22;4940;50.900;4.672;2022-09-09T07:05:39;17.00;99.90
9802;DHT22;4940;50.900;4.672;2022-09-09T07:08:06;17.00;99.90
9802;DHT22;4940;50.900;4.672;2022-09-09T07:10:34;17.00;99.90
9802;DHT22;4940;50.900;4.672;2022-09-09T07:15:30;17.10;99.90
9802;DHT22;4940;50.900;4.672;2022-09-09T07:18:01;17.10;99.90
9802;DHT22;4940;50.900;4.672;2022-09-09T07:22:56;17.10;99.90
9802;DHT22;4940;50.900;4.672;2022-09-09T07:25:24;17.10;99.90
9802;DHT22;4940;50.900;4.672;2022-09-09T07:27:52;17.20;99.90
9802;DHT22;4940;50.900;4.672;2022-09-09T07:30:22;17.20;99.90
9802;DHT22;4940;50.900;4.672;2022-09-09T07:32:51;17.20;99.90
9802;DHT22;4940;50.900;4.672;2022-09-09T07:35:19;17.20;99.90
9802;DHT22;4940;50.900;4.672;2022-09-09T07:37:46;17.20;99.90
9802;DHT22;4940;50.900;4.672;2022-09-09T07:40:14;17.00;99.90
9802;DHT22;4940;50.900;4.672;2022-09-09T07:47:43;17.20;99.90
9802;DHT22;4940;50.900;4.672;2022-09-09T07:50:14;17.20;99.90
9802;DHT22;4940;50.900;4.672;2022-09-09T07:55:10;17.10;99.90
9802;DHT22;4940;50.900;4.672;2022-09-09T07:57:37;17.20;99.90
9802;DHT22;4940;50.900;4.672;2022-09-09T08:00:06;17.20;99.90
9802;DHT22;4940;50.900;4.672;2022-09-09T08:02:34;17.20;99.90
9802;DHT22;4940;50.900;4.672;2022-09-09T08:07:32;17.30;99.90
9802;DHT22;4940;50.900;4.672;2022-09-09T08:09:59;17.40;99.90
9802;DHT22;4940;50.900;4.672;2022-09-09T08:12:26;17.40;99.90
9802;DHT22;4940;50.900;4.672;2022-09-09T08:14:53;17.50;99.90
9802;DHT22;4940;50.900;4.672;2022-09-09T08:17:21;17.60;99.90
9802;DHT22;4940;50.900;4.672;2022-09-09T08:19:48;17.60;99.90
9802;DHT22;4940;50.900;4.672;2022-09-09T08:22:17;17.70;99.90
9802;DHT22;4940;50.900;4.672;2022-09-09T08:24:45;17.90;99.90
9802;DHT22;4940;50.900;4.672;2022-09-09T08:27:13;18.00;99.90
9802;DHT22;4940;50.900;4.672;2022-09-09T08:29:40;18.20;99.90
9802;DHT22;4940;50.900;4.672;2022-09-09T08:32:07;18.30;99.90
9802;DHT22;4940;50.900;4.672;2022-09-09T08:34:34;18.60;99.90
9802;DHT22;4940;50.900;4.672;2022-09-09T08:37:02;18.70;99.90
9802;DHT22;4940;50.900;4.672;2022-09-09T08:39:30;18.80;99.90
9802;DHT22;4940;50.900;4.672;2022-09-09T08:42:16;18.80;99.90
9802;DHT22;4940;50.900;4.672;2022-09-09T08:45:00;18.80;99.90
9802;DHT22;4940;50.900;4.672;2022-09-09T08:47:34;18.80;99.90
9802;DHT22;4940;50.900;4.672;2022-09-09T08:50:16;18.80;99.90
9802;DHT22;4940;50.900;4.672;2022-09-09T08:52:51;18.80;99.90
9802;DHT22;4940;50.900;4.672;2022-09-09T08:55:27;18.70;99.90
9802;DHT22;4940;50.900;4.672;2022-09-09T08:57:58;18.90;99.90
9802;DHT22;4940;50.900;4.672;2022-09-09T09:00:32;18.60;99.90
9802;DHT22;4940;50.900;4.672;2022-09-09T09:03:09;18.60;99.90
9802;DHT22;4940;50.900;4.672;2022-09-09T09:05:46;18.30;99.90
9802;DHT22;4940;50.900;4.672;2022-09-09T09:08:20;18.50;99.90
9802;DHT22;4940;50.900;4.672;2022-09-09T09:10:55;18.50;99.90
9802;DHT22;4940;50.900;4.672;2022-09-09T09:13:30;18.50;99.90
9802;DHT22;4940;50.900;4.672;2022-09-09T09:16:02;18.40;99.90
9802;DHT22;4940;50.900;4.672;2022-09-09T09:18:31;18.50;99.90
9802;DHT22;4940;50.900;4.672;2022-09-09T09:21:05;18.30;99.90
9802;DHT22;4940;50.900;4.672;2022-09-09T09:23:43;18.20;99.90
9802;DHT22;4940;50.900;4.672;2022-09-09T09:26:14;18.20;99.90
9802;DHT22;4940;50.900;4.672;2022-09-09T09:28:41;18.20;99.90
9802;DHT22;4940;50.900;4.672;2022-09-09T09:31:10;18.20;99.90
9802;DHT22;4940;50.900;4.672;2022-09-09T09:33:43;18.30;99.90
9802;DHT22;4940;50.900;4.672;2022-09-09T09:36:12;18.30;99.90
9802;DHT22;4940;50.900;4.672;2022-09-09T09:38:52;18.30;99.90
9802;DHT22;4940;50.900;4.672;2022-09-09T09:41:31;18.30;99.90
9802;DHT22;4940;50.900;4.672;2022-09-09T09:43:59;18.30;99.90
9802;DHT22;4940;50.900;4.672;2022-09-09T09:49:01;18.30;99.90
9802;DHT22;4940;50.900;4.672;2022-09-09T09:51:30;18.30;99.90
9802;DHT22;4940;50.900;4.672;2022-09-09T09:54:15;18.30;99.90
9802;DHT22;4940;50.900;4.672;2022-09-09T09:56:46;18.30;99.90
9802;DHT22;4940;50.900;4.672;2022-09-09T09:59:21;18.20;99.90
9802;DHT22;4940;50.900;4.672;2022-09-09T10:01:49;18.30;99.90
9802;DHT22;4940;50.900;4.672;2022-09-09T10:04:18;18.20;99.90
9802;DHT22;4940;50.900;4.672;2022-09-09T10:06:46;18.20;99.90
9802;DHT22;4940;50.900;4.672;2022-09-09T10:09:24;18.50;99.90
9802;DHT22;4940;50.900;4.672;2022-09-09T10:11:59;18.40;99.90
9802;DHT22;4940;50.900;4.672;2022-09-09T10:14:33;18.30;99.90
9802;DHT22;4940;50.900;4.672;2022-09-09T10:17:14;18.30;99.90
9802;DHT22;4940;50.900;4.672;2022-09-09T10:19:53;18.30;99.90
9802;DHT22;4940;50.900;4.672;2022-09-09T10:22:26;18.30;99.90
9802;DHT22;4940;50.900;4.672;2022-09-09T10:30:38;18.50;99.90
9802;DHT22;4940;50.900;4.672;2022-09-09T10:33:10;18.40;99.90
9802;DHT22;4940;50.900;4.672;2022-09-09T10:35:47;18.50;99.90
9802;DHT22;4940;50.900;4.672;2022-09-09T10:38:24;18.50;99.90
9802;DHT22;4940;50.900;4.672;2022-09-09T10:41:19;18.60;99.90
9802;DHT22;4940;50.900;4.672;2022-09-09T10:46:30;18.70;99.90
9802;DHT22;4940;50.900;4.672;2022-09-09T10:49:13;18.60;99.90
9802;DHT22;4940;50.900;4.672;2022-09-09T10:51:48;18.60;99.90
9802;DHT22;4940;50.900;4.672;2022-09-09T10:54:34;18.70;99.90
9802;DHT22;4940;50.900;4.672;2022-09-09T10:57:08;18.80;99.90
9802;DHT22;4940;50.900;4.672;2022-09-09T10:59:42;18.90;99.90
9802;DHT22;4940;50.900;4.672;2022-09-09T11:02:15;18.90;99.90
9802;DHT22;4940;50.900;4.672;2022-09-09T11:04:48;19.00;99.90
9802;DHT22;4940;50.900;4.672;2022-09-09T11:07:25;19.20;99.90
9802;DHT22;4940;50.900;4.672;2022-09-09T11:09:58;19.40;99.90
9802;DHT22;4940;50.900;4.672;2022-09-09T11:12:29;19.30;99.90
9802;DHT22;4940;50.900;4.672;2022-09-09T11:15:04;19.10;99.90
9802;DHT22;4940;50.900;4.672;2022-09-09T11:17:36;19.60;99.90
9802;DHT22;4940;50.900;4.672;2022-09-09T11:20:06;19.90;99.90
9802;DHT22;4940;50.900;4.672;2022-09-09T11:22:42;19.90;99.90
9802;DHT22;4940;50.900;4.672;2022-09-09T11:25:15;20.20;99.90
9802;DHT22;4940;50.900;4.672;2022-09-09T11:27:56;20.20;99.90
9802;DHT22;4940;50.900;4.672;2022-09-09T11:30:39;20.60;99.90
9802;DHT22;4940;50.900;4.672;2022-09-09T11:33:33;20.60;99.90
9802;DHT22;4940;50.900;4.672;2022-09-09T11:39:38;21.40;99.90
9802;DHT22;4940;50.900;4.672;2022-09-09T11:44:43;21.50;99.90
9802;DHT22;4940;50.900;4.672;2022-09-09T11:47:20;22.10;99.90
9802;DHT22;4940;50.900;4.672;2022-09-09T11:49:50;22.30;99.90
9802;DHT22;4940;50.900;4.672;2022-09-09T11:52:24;22.40;99.90
9802;DHT22;4940;50.900;4.672;2022-09-09T11:54:55;22.40;99.90
9802;DHT22;4940;50.900;4.672;2022-09-09T11:57:26;22.40;99.90
9802;DHT22;4940;50.900;4.672;2022-09-09T11:59:55;22.40;99.90
9802;DHT22;4940;50.900;4.672;2022-09-09T12:02:25;22.30;99.90
9802;DHT22;4940;50.900;4.672;2022-09-09T12:04:58;22.30;99.90
9802;DHT22;4940;50.900;4.672;2022-09-09T12:07:37;22.20;99.90
9802;DHT22;4940;50.900;4.672;2022-09-09T12:10:20;22.20;99.90
9802;DHT22;4940;50.900;4.672;2022-09-09T12:12:49;22.30;99.90
9802;DHT22;4940;50.900;4.672;2022-09-09T12:15:22;22.20;99.90
9802;DHT22;4940;50.900;4.672;2022-09-09T12:17:52;22.10;99.90
9802;DHT22;4940;50.900;4.672;2022-09-09T12:20:22;22.10;99.90
9802;DHT22;4940;50.900;4.672;2022-09-09T12:22:57;22.10;99.90
9802;DHT22;4940;50.900;4.672;2022-09-09T12:25:31;22.00;99.90
9802;DHT22;4940;50.900;4.672;2022-09-09T12:28:09;22.00;99.90
9802;DHT22;4940;50.900;4.672;2022-09-09T12:30:44;22.00;99.90
9802;DHT22;4940;50.900;4.672;2022-09-09T12:33:17;22.10;99.90
9802;DHT22;4940;50.900;4.672;2022-09-09T12:35:49;22.10;99.90
9802;DHT22;4940;50.900;4.672;2022-09-09T12:38:25;23.70;99.90
9802;DHT22;4940;50.900;4.672;2022-09-09T12:40:56;22.10;99.90
9802;DHT22;4940;50.900;4.672;2022-09-09T12:43:26;22.10;99.90
9802;DHT22;4940;50.900;4.672;2022-09-09T12:45:56;22.10;99.90
9802;DHT22;4940;50.900;4.672;2022-09-09T12:48:30;22.10;99.90
9802;DHT22;4940;50.900;4.672;2022-09-09T12:50:59;22.10;99.90
9802;DHT22;4940;50.900;4.672;2022-09-09T12:53:29;22.00;99.90
9802;DHT22;4940;50.900;4.672;2022-09-09T12:55:59;22.00;99.90
9802;DHT22;4940;50.900;4.672;2022-09-09T12:58:28;22.00;99.90
9802;DHT22;4940;50.900;4.672;2022-09-09T13:00:59;21.90;99.90
9802;DHT22;4940;50.900;4.672;2022-09-09T13:03:28;21.90;99.90
9802;DHT22;4940;50.900;4.672;2022-09-09T13:05:58;21.90;99.90
9802;DHT22;4940;50.900;4.672;2022-09-09T13:08:26;22.00;99.90
9802;DHT22;4940;50.900;4.672;2022-09-09T13:10:55;21.90;99.90
9802;DHT22;4940;50.900;4.672;2022-09-09T13:13:26;22.00;99.90
9802;DHT22;4940;50.900;4.672;2022-09-09T13:15:56;22.00;99.90
9802;DHT22;4940;50.900;4.672;2022-09-09T13:18:25;22.00;99.90
9802;DHT22;4940;50.900;4.672;2022-09-09T13:20:55;22.00;99.90
9802;DHT22;4940;50.900;4.672;2022-09-09T13:23:27;22.10;99.90
9802;DHT22;4940;50.900;4.672;2022-09-09T13:25:56;22.20;99.90
9802;DHT22;4940;50.900;4.672;2022-09-09T13:28:25;22.30;99.90
9802;DHT22;4940;50.900;4.672;2022-09-09T13:30:57;22.40;99.90
9802;DHT22;4940;50.900;4.672;2022-09-09T13:33:31;22.60;99.90
9802;DHT22;4940;50.900;4.672;2022-09-09T13:36:02;22.30;99.90
9802;DHT22;4940;50.900;4.672;2022-09-09T13:38:32;22.30;99.90
9802;DHT22;4940;50.900;4.672;2022-09-09T13:41:02;22.40;99.90
9802;DHT22;4940;50.900;4.672;2022-09-09T13:43:31;22.20;99.90
9802;DHT22;4940;50.900;4.672;2022-09-09T13:46:02;22.40;99.90
9802;DHT22;4940;50.900;4.672;2022-09-09T13:48:29;22.40;99.90
9802;DHT22;4940;50.900;4.672;2022-09-09T13:51:01;22.40;99.90
9802;DHT22;4940;50.900;4.672;2022-09-09T13:53:30;22.50;99.90
9802;DHT22;4940;50.900;4.672;2022-09-09T13:55:58;22.50;99.90
9802;DHT22;4940;50.900;4.672;2022-09-09T13:58:25;22.40;99.90
9802;DHT22;4940;50.900;4.672;2022-09-09T14:00:53;22.50;99.90
9802;DHT22;4940;50.900;4.672;2022-09-09T14:03:20;22.40;99.90
9802;DHT22;4940;50.900;4.672;2022-09-09T14:08:24;22.40;99.90
9802;DHT22;4940;50.900;4.672;2022-09-09T14:13:21;22.70;99.90
9802;DHT22;4940;50.900;4.672;2022-09-09T14:15:49;22.60;99.90
9802;DHT22;4940;50.900;4.672;2022-09-09T14:25:43;22.80;99.90
9802;DHT22;4940;50.900;4.672;2022-09-09T14:28:11;22.80;99.90
9802;DHT22;4940;50.900;4.672;2022-09-09T14:30:40;22.80;99.90
9802;DHT22;4940;50.900;4.672;2022-09-09T14:33:11;22.80;99.90
9802;DHT22;4940;50.900;4.672;2022-09-09T14:38:14;22.70;99.90
9802;DHT22;4940;50.900;4.672;2022-09-09T14:40:45;22.80;99.90
9802;DHT22;4940;50.900;4.672;2022-09-09T14:43:13;22.80;99.90
9802;DHT22;4940;50.900;4.672;2022-09-09T14:45:40;22.80;99.90
9802;DHT22;4940;50.900;4.672;2022-09-09T14:48:09;22.80;99.90
9802;DHT22;4940;50.900;4.672;2022-09-09T14:50:36;22.70;99.90
9802;DHT22;4940;50.900;4.672;2022-09-09T14:53:05;22.70;99.90
9802;DHT22;4940;50.900;4.672;2022-09-09T14:55:33;22.60;99.90
9802;DHT22;4940;50.900;4.672;2022-09-09T14:58:01;22.70;99.90
9802;DHT22;4940;50.900;4.672;2022-09-09T15:00:29;22.70;99.90
9802;DHT22;4940;50.900;4.672;2022-09-09T15:02:56;22.70;99.90
9802;DHT22;4940;50.900;4.672;2022-09-09T15:05:23;22.70;99.90
9802;DHT22;4940;50.900;4.672;2022-09-09T15:07:51;22.60;99.90
9802;DHT22;4940;50.900;4.672;2022-09-09T15:10:18;22.60;99.90
9802;DHT22;4940;50.900;4.672;2022-09-09T15:12:46;22.70;99.90
9802;DHT22;4940;50.900;4.672;2022-09-09T15:15:15;24.90;99.90
9802;DHT22;4940;50.900;4.672;2022-09-09T15:17:43;22.50;99.90
9802;DHT22;4940;50.900;4.672;2022-09-09T15:22:37;24.80;99.90
9802;DHT22;4940;50.900;4.672;2022-09-09T15:25:06;22.40;99.90
9802;DHT22;4940;50.900;4.672;2022-09-09T15:27:34;22.20;99.90
9802;DHT22;4940;50.900;4.672;2022-09-09T15:30:01;22.20;99.90
9802;DHT22;4940;50.900;4.672;2022-09-09T15:32:30;22.20;99.90
9802;DHT22;4940;50.900;4.672;2022-09-09T15:35:00;22.10;99.90
9802;DHT22;4940;50.900;4.672;2022-09-09T15:37:27;22.00;99.90
9802;DHT22;4940;50.900;4.672;2022-09-09T15:39:54;22.00;99.90
9802;DHT22;4940;50.900;4.672;2022-09-09T15:42:24;22.00;99.90
9802;DHT22;4940;50.900;4.672;2022-09-09T15:44:52;22.10;99.90
9802;DHT22;4940;50.900;4.672;2022-09-09T15:47:19;22.10;99.90
9802;DHT22;4940;50.900;4.672;2022-09-09T15:49:48;22.10;99.90
9802;DHT22;4940;50.900;4.672;2022-09-09T15:54:43;22.10;99.90
9802;DHT22;4940;50.900;4.672;2022-09-09T15:57:12;22.10;99.90
9802;DHT22;4940;50.900;4.672;2022-09-09T15:59:40;22.10;99.90
9802;DHT22;4940;50.900;4.672;2022-09-09T16:04:34;22.10;99.90
9802;DHT22;4940;50.900;4.672;2022-09-09T16:07:04;22.10;99.90
9802;DHT22;4940;50.900;4.672;2022-09-09T16:09:33;22.10;99.90
9802;DHT22;4940;50.900;4.672;2022-09-09T16:12:02;22.10;99.90
9802;DHT22;4940;50.900;4.672;2022-09-09T16:14:32;22.20;99.90
9802;DHT22;4940;50.900;4.672;2022-09-09T16:19:29;22.10;99.90
9802;DHT22;4940;50.900;4.672;2022-09-09T16:24:27;22.00;99.90
9802;DHT22;4940;50.900;4.672;2022-09-09T16:26:55;21.90;99.90
9802;DHT22;4940;50.900;4.672;2022-09-09T16:29:22;21.90;99.90
9802;DHT22;4940;50.900;4.672;2022-09-09T16:31:52;21.80;99.90
9802;DHT22;4940;50.900;4.672;2022-09-09T16:34:20;21.80;99.90
9802;DHT22;4940;50.900;4.672;2022-09-09T16:36:48;21.70;99.90
9802;DHT22;4940;50.900;4.672;2022-09-09T16:39:18;21.70;99.90
9802;DHT22;4940;50.900;4.672;2022-09-09T16:41:48;21.60;99.90
9802;DHT22;4940;50.900;4.672;2022-09-09T16:44:17;21.50;99.90
9802;DHT22;4940;50.900;4.672;2022-09-09T16:46:46;21.30;99.90
9802;DHT22;4940;50.900;4.672;2022-09-09T16:49:14;21.50;99.90
9802;DHT22;4940;50.900;4.672;2022-09-09T16:51:44;21.50;99.90
9802;DHT22;4940;50.900;4.672;2022-09-09T16:54:12;21.10;99.90
9802;DHT22;4940;50.900;4.672;2022-09-09T16:56:43;21.20;99.90
9802;DHT22;4940;50.900;4.672;2022-09-09T16:59:14;21.10;99.90
9802;DHT22;4940;50.900;4.672;2022-09-09T17:01:43;21.00;99.90
9802;DHT22;4940;50.900;4.672;2022-09-09T17:04:12;20.80;99.90
9802;DHT22;4940;50.900;4.672;2022-09-09T17:06:41;20.80;99.90
9802;DHT22;4940;50.900;4.672;2022-09-09T17:09:10;20.70;99.90
9802;DHT22;4940;50.900;4.672;2022-09-09T17:11:39;20.60;99.90
9802;DHT22;4940;50.900;4.672;2022-09-09T17:14:08;20.50;99.90
9802;DHT22;4940;50.900;4.672;2022-09-09T17:16:37;20.40;99.90
9802;DHT22;4940;50.900;4.672;2022-09-09T17:19:05;20.40;99.90
9802;DHT22;4940;50.900;4.672;2022-09-09T17:24:01;20.40;99.90
9802;DHT22;4940;50.900;4.672;2022-09-09T17:26:30;20.30;99.90